createdAt,value
2023-05-07T00:00:30.710Z,8.70
2023-05-07T00:01:30.729Z,7.90
2023-05-07T00:02:30.776Z,7.60
2023-05-07T00:03:30.934Z,7.30
2023-05-07T00:04:30.704Z,7.40
2023-05-07T00:05:30.671Z,7.60
2023-05-07T00:06:30.628Z,6.60
2023-05-07T00:07:30.635Z,9.30
2023-05-07T00:08:30.647Z,7.70
2023-05-07T00:09:30.620Z,7.40
2023-05-07T00:10:30.592Z,7.10
2023-05-07T00:11:30.593Z,8.40
2023-05-07T00:12:30.547Z,7.30
2023-05-07T00:13:30.545Z,8.60
2023-05-07T00:14:30.525Z,6.80
2023-05-07T00:15:30.522Z,6.90
2023-05-07T00:16:30.602Z,7.70
2023-05-07T00:17:30.535Z,10.60
2023-05-07T00:18:30.482Z,8.30
2023-05-07T00:19:30.475Z,11.90
2023-05-07T00:20:30.428Z,10.70
2023-05-07T00:21:30.441Z,8.90
2023-05-07T00:22:30.406Z,8.90
2023-05-07T00:23:30.401Z,10.60
2023-05-07T00:24:30.389Z,11.80
2023-05-07T00:25:30.400Z,13.50
2023-05-07T00:26:30.376Z,13.20
2023-05-07T00:27:30.335Z,15.00
2023-05-07T00:28:30.317Z,14.20
2023-05-07T00:29:30.329Z,14.10
2023-05-07T00:30:30.302Z,14.60
2023-05-07T00:31:30.382Z,15.40
2023-05-07T00:32:30.428Z,13.90
2023-05-07T00:33:30.288Z,13.90
2023-05-07T00:34:30.249Z,13.50
2023-05-07T00:35:30.250Z,13.30
2023-05-07T00:36:30.227Z,14.50
2023-05-07T00:37:30.274Z,14.60
2023-05-07T00:38:30.210Z,13.50
2023-05-07T00:39:30.198Z,14.40
2023-05-07T00:40:30.171Z,14.40
2023-05-07T00:41:30.171Z,13.30
2023-05-07T00:42:30.137Z,13.60
2023-05-07T00:43:30.151Z,13.80
2023-05-07T00:44:30.120Z,14.20
2023-05-07T00:45:30.196Z,15.30
2023-05-07T00:46:30.240Z,15.10
2023-05-07T00:47:30.167Z,14.50
2023-05-07T00:48:30.079Z,14.60
2023-05-07T00:49:30.046Z,17.30
2023-05-07T00:50:30.048Z,16.90
2023-05-07T00:51:30.035Z,16.40
2023-05-07T00:52:30.045Z,16.20
2023-05-07T00:53:30.025Z,15.50
2023-05-07T00:54:29.972Z,16.50
2023-05-07T00:55:29.976Z,16.90
2023-05-07T00:56:30.001Z,17.00
2023-05-07T00:57:29.993Z,16.40
2023-05-07T00:58:29.918Z,17.10
2023-05-07T00:59:29.998Z,18.10
2023-05-07T01:00:29.898Z,16.90
2023-05-07T01:01:29.927Z,16.10
2023-05-07T01:02:29.904Z,15.50
2023-05-07T01:03:29.981Z,15.80
2023-05-07T01:04:29.914Z,13.90
2023-05-07T01:05:29.827Z,14.20
2023-05-07T01:06:29.813Z,14.20
2023-05-07T01:07:29.806Z,15.60
2023-05-07T01:08:29.785Z,15.10
2023-05-07T01:09:29.832Z,15.30
2023-05-07T01:10:29.758Z,15.60
2023-05-07T01:11:29.777Z,16.40
2023-05-07T01:12:29.732Z,16.30
2023-05-07T01:13:29.742Z,17.20
2023-05-07T01:14:29.687Z,17.20
2023-05-07T01:15:29.692Z,18.30
2023-05-07T01:16:29.725Z,18.70
2023-05-07T01:17:29.693Z,18.40
2023-05-07T01:18:29.670Z,18.10
2023-05-07T01:19:29.641Z,19.10
2023-05-07T01:20:29.645Z,18.30
2023-05-07T01:21:29.628Z,19.20
2023-05-07T01:22:29.581Z,19.70
2023-05-07T01:23:29.641Z,18.90
2023-05-07T01:24:29.581Z,18.40
2023-05-07T01:25:37.076Z,18.80
2023-05-07T01:26:29.537Z,17.80
2023-05-07T01:27:29.554Z,19.50
2023-05-07T01:28:29.521Z,17.30
2023-05-07T01:29:29.526Z,19.30
2023-05-07T01:30:29.531Z,19.10
2023-05-07T01:31:29.525Z,18.50
2023-05-07T01:32:29.463Z,19.30
2023-05-07T01:33:29.447Z,19.50
2023-05-07T01:34:29.443Z,20.10
2023-05-07T01:35:29.470Z,20.40
2023-05-07T01:36:29.432Z,21.00
2023-05-07T01:37:29.370Z,19.70
2023-05-07T01:38:29.361Z,18.40
2023-05-07T01:39:29.390Z,19.30
2023-05-07T01:40:29.371Z,20.20
2023-05-07T01:41:29.378Z,19.50
2023-05-07T01:42:29.342Z,19.70
2023-05-07T01:43:29.335Z,21.50
2023-05-07T01:44:29.321Z,19.60
2023-05-07T01:45:29.369Z,20.10
2023-05-07T01:46:29.262Z,20.70
2023-05-07T01:47:29.285Z,20.20
2023-05-07T01:48:29.230Z,20.40
2023-05-07T01:49:29.239Z,20.10
2023-05-07T01:50:29.202Z,20.10
2023-05-07T01:51:29.206Z,21.00
2023-05-07T01:52:29.195Z,20.80
2023-05-07T01:53:29.190Z,22.00
2023-05-07T01:54:29.162Z,20.70
2023-05-07T01:55:29.175Z,21.20
2023-05-07T01:56:29.134Z,19.90
2023-05-07T01:57:29.133Z,21.40
2023-05-07T01:58:29.109Z,21.90
2023-05-07T01:59:29.077Z,21.20
2023-05-07T02:00:29.080Z,21.10
2023-05-07T02:01:29.186Z,22.30
2023-05-07T02:02:29.078Z,21.30
2023-05-07T02:03:29.137Z,22.10
2023-05-07T02:04:29.034Z,21.40
2023-05-07T02:05:29.053Z,22.30
2023-05-07T02:06:28.975Z,22.00
2023-05-07T02:07:29.005Z,22.10
2023-05-07T02:08:28.954Z,21.20
2023-05-07T02:09:28.945Z,22.10
2023-05-07T02:10:28.970Z,22.00
2023-05-07T02:11:28.923Z,22.40
2023-05-07T02:12:28.901Z,21.20
2023-05-07T02:13:28.933Z,22.10
2023-05-07T02:14:28.887Z,22.50
2023-05-07T02:15:28.886Z,23.10
2023-05-07T02:16:28.924Z,21.90
2023-05-07T02:17:28.882Z,22.20
2023-05-07T02:18:28.847Z,22.70
2023-05-07T02:19:28.818Z,22.60
2023-05-07T02:20:28.819Z,23.40
2023-05-07T02:21:30.596Z,24.30
2023-05-07T02:22:28.784Z,23.40
2023-05-07T02:23:28.781Z,25.60
2023-05-07T02:24:28.778Z,24.90
2023-05-07T02:25:28.789Z,24.90
2023-05-07T02:26:28.766Z,25.00
2023-05-07T02:27:28.715Z,24.20
2023-05-07T02:28:28.696Z,24.60
2023-05-07T02:29:28.677Z,24.30
2023-05-07T02:30:28.668Z,24.60
2023-05-07T02:31:28.731Z,25.20
2023-05-07T02:32:28.708Z,25.00
2023-05-07T02:33:28.634Z,24.70
2023-05-07T02:34:28.633Z,25.20
2023-05-07T02:35:28.619Z,25.10
2023-05-07T02:36:28.573Z,23.80
2023-05-07T02:37:28.598Z,24.70
2023-05-07T02:38:28.574Z,25.40
2023-05-07T02:39:28.580Z,26.10
2023-05-07T02:40:28.558Z,25.10
2023-05-07T02:41:28.528Z,24.90
2023-05-07T02:42:28.494Z,24.30
2023-05-07T02:43:28.483Z,25.20
2023-05-07T02:44:28.478Z,25.00
2023-05-07T02:45:28.619Z,25.90
2023-05-07T02:46:28.554Z,23.90
2023-05-07T02:47:28.479Z,25.70
2023-05-07T02:48:28.425Z,25.00
2023-05-07T02:49:28.410Z,25.20
2023-05-07T02:50:28.490Z,25.30
2023-05-07T02:51:28.397Z,26.40
2023-05-07T02:52:28.369Z,25.10
2023-05-07T02:53:28.381Z,26.60
2023-05-07T02:54:28.330Z,26.50
2023-05-07T02:55:28.354Z,26.40
2023-05-07T02:56:28.372Z,27.10
2023-05-07T02:57:28.301Z,25.30
2023-05-07T02:58:28.294Z,22.80
2023-05-07T02:59:28.272Z,23.50
2023-05-07T03:00:28.305Z,26.10
2023-05-07T03:01:28.288Z,26.00
2023-05-07T03:02:28.296Z,26.20
2023-05-07T03:03:28.233Z,27.20
2023-05-07T03:04:28.256Z,26.80
2023-05-07T03:05:28.233Z,27.70
2023-05-07T03:06:28.190Z,28.40
2023-05-07T03:07:28.173Z,27.20
2023-05-07T03:08:28.185Z,25.10
2023-05-07T03:09:28.165Z,26.40
2023-05-07T03:10:28.175Z,25.40
2023-05-07T03:11:28.115Z,26.80
2023-05-07T03:12:28.161Z,26.30
2023-05-07T03:13:28.130Z,26.80
2023-05-07T03:14:28.046Z,27.40
2023-05-07T03:15:28.042Z,24.60
2023-05-07T03:16:28.067Z,27.00
2023-05-07T03:17:28.051Z,27.50
2023-05-07T03:18:28.073Z,27.30
2023-05-07T03:19:28.046Z,27.10
2023-05-07T03:20:28.001Z,26.80
2023-05-07T03:21:28.000Z,25.70
2023-05-07T03:22:28.080Z,28.70
2023-05-07T03:23:28.028Z,27.70
2023-05-07T03:24:27.939Z,26.40
2023-05-07T03:25:27.922Z,27.90
2023-05-07T03:26:27.936Z,27.80
2023-05-07T03:27:27.893Z,26.60
2023-05-07T03:28:27.887Z,26.40
2023-05-07T03:29:27.896Z,29.60
2023-05-07T03:30:27.861Z,29.80
2023-05-07T03:31:27.911Z,29.20
2023-05-07T03:32:27.852Z,29.00
2023-05-07T03:33:27.808Z,28.90
2023-05-07T03:34:27.855Z,28.00
2023-05-07T03:35:27.785Z,28.50
2023-05-07T03:36:27.844Z,27.80
2023-05-07T03:37:27.775Z,28.40
2023-05-07T03:38:27.760Z,29.50
2023-05-07T03:39:27.706Z,27.80
2023-05-07T03:40:27.765Z,28.90
2023-05-07T03:41:27.747Z,28.50
2023-05-07T03:42:27.691Z,29.30
2023-05-07T03:43:27.692Z,28.60
2023-05-07T03:44:27.726Z,27.80
2023-05-07T03:45:27.699Z,28.90
2023-05-07T03:46:27.843Z,28.40
2023-05-07T03:47:27.702Z,27.40
2023-05-07T03:48:27.593Z,28.00
2023-05-07T03:49:27.593Z,28.60
2023-05-07T03:50:27.575Z,27.80
2023-05-07T03:51:27.564Z,26.70
2023-05-07T03:52:27.591Z,29.00
2023-05-07T03:53:27.550Z,31.10
2023-05-07T03:54:27.576Z,30.50
2023-05-07T03:55:27.503Z,30.20
2023-05-07T03:56:27.692Z,28.70
2023-05-07T03:57:27.477Z,30.10
2023-05-07T03:58:27.482Z,31.00
2023-05-07T03:59:27.520Z,31.90
2023-05-07T04:00:27.451Z,30.60
2023-05-07T04:01:27.422Z,30.40
2023-05-07T04:02:27.487Z,32.40
2023-05-07T04:03:27.476Z,31.20
2023-05-07T04:04:27.403Z,31.10
2023-05-07T04:05:27.382Z,30.60
2023-05-07T04:06:27.375Z,31.40
2023-05-07T04:07:27.381Z,32.20
2023-05-07T04:08:27.323Z,32.00
2023-05-07T04:09:27.311Z,32.00
2023-05-07T04:10:27.354Z,32.60
2023-05-07T04:11:27.312Z,33.20
2023-05-07T04:12:27.337Z,31.30
2023-05-07T04:13:27.300Z,32.40
2023-05-07T04:14:27.252Z,31.70
2023-05-07T04:15:27.270Z,31.50
2023-05-07T04:16:27.260Z,31.00
2023-05-07T04:17:27.215Z,31.60
2023-05-07T04:18:27.197Z,31.60
2023-05-07T04:19:27.176Z,33.20
2023-05-07T04:20:27.154Z,32.60
2023-05-07T04:21:27.160Z,32.80
2023-05-07T04:22:27.135Z,32.80
2023-05-07T04:23:27.112Z,33.10
2023-05-07T04:24:27.138Z,33.50
2023-05-07T04:25:27.115Z,33.50
2023-05-07T04:26:27.109Z,33.20
2023-05-07T04:27:27.163Z,33.10
2023-05-07T04:28:27.089Z,31.20
2023-05-07T04:29:27.044Z,31.90
2023-05-07T04:30:27.041Z,33.00
2023-05-07T04:31:27.049Z,32.40
2023-05-07T04:32:27.058Z,32.30
2023-05-07T04:33:27.002Z,33.50
2023-05-07T04:34:26.983Z,33.10
2023-05-07T04:35:26.981Z,33.40
2023-05-07T04:36:26.983Z,33.50
2023-05-07T04:37:26.915Z,32.60
2023-05-07T04:38:26.916Z,33.20
2023-05-07T04:39:26.914Z,33.40
2023-05-07T04:40:26.885Z,32.90
2023-05-07T04:41:26.916Z,34.00
2023-05-07T04:42:26.881Z,31.50
2023-05-07T04:43:26.844Z,32.60
2023-05-07T04:44:26.830Z,32.90
2023-05-07T04:45:26.829Z,33.00
2023-05-07T04:46:26.877Z,32.70
2023-05-07T04:47:26.854Z,33.30
2023-05-07T04:48:26.809Z,31.60
2023-05-07T04:49:26.766Z,32.20
2023-05-07T04:50:26.770Z,33.00
2023-05-07T04:51:26.740Z,31.40
2023-05-07T04:52:27.402Z,33.00
2023-05-07T04:53:26.716Z,32.50
2023-05-07T04:54:26.703Z,32.50
2023-05-07T04:55:26.694Z,32.50
2023-05-07T04:56:26.694Z,33.60
2023-05-07T04:57:26.699Z,33.20
2023-05-07T04:58:26.639Z,33.70
2023-05-07T04:59:26.630Z,33.70
2023-05-07T05:00:26.638Z,33.70
2023-05-07T05:01:26.649Z,34.40
2023-05-07T05:02:26.600Z,35.00
2023-05-07T05:03:26.730Z,33.80
2023-05-07T05:04:26.562Z,35.30
2023-05-07T05:05:26.573Z,36.10
2023-05-07T05:06:26.523Z,35.20
2023-05-07T05:07:26.505Z,34.50
2023-05-07T05:08:26.501Z,34.00
2023-05-07T05:09:26.532Z,35.60
2023-05-07T05:10:26.490Z,34.10
2023-05-07T05:11:26.473Z,34.70
2023-05-07T05:12:26.477Z,35.10
2023-05-07T05:13:26.538Z,35.10
2023-05-07T05:14:26.425Z,34.90
2023-05-07T05:15:26.437Z,34.30
2023-05-07T05:16:26.415Z,35.10
2023-05-07T05:17:26.400Z,35.80
2023-05-07T05:18:26.410Z,35.70
2023-05-07T05:19:26.350Z,35.30
2023-05-07T05:20:26.374Z,35.70
2023-05-07T05:21:26.358Z,35.30
2023-05-07T05:22:26.379Z,35.10
2023-05-07T05:23:26.300Z,34.80
2023-05-07T05:24:26.279Z,34.50
2023-05-07T05:25:26.267Z,35.10
2023-05-07T05:26:26.288Z,35.40
2023-05-07T05:27:26.250Z,34.80
2023-05-07T05:28:26.302Z,33.80
2023-05-07T05:29:26.242Z,35.10
2023-05-07T05:30:26.225Z,34.20
2023-05-07T05:31:26.219Z,34.00
2023-05-07T05:32:26.242Z,33.50
2023-05-07T05:33:26.173Z,32.90
2023-05-07T05:34:26.146Z,33.90
2023-05-07T05:35:26.113Z,31.50
2023-05-07T05:36:26.133Z,32.10
2023-05-07T05:37:26.118Z,32.40
2023-05-07T05:38:26.146Z,32.40
2023-05-07T05:39:26.151Z,29.50
2023-05-07T05:40:26.083Z,30.40
2023-05-07T05:41:26.079Z,29.90
2023-05-07T05:42:26.051Z,30.00
2023-05-07T05:43:26.067Z,30.10
2023-05-07T05:44:26.039Z,28.80
2023-05-07T05:45:26.012Z,29.20
2023-05-07T05:46:26.021Z,28.90
2023-05-07T05:47:26.042Z,28.90
2023-05-07T05:48:25.956Z,28.60
2023-05-07T05:49:26.018Z,28.30
2023-05-07T05:50:25.955Z,28.00
2023-05-07T05:51:25.934Z,28.10
2023-05-07T05:52:25.935Z,26.50
2023-05-07T05:53:25.893Z,26.90
2023-05-07T05:54:25.890Z,27.50
2023-05-07T05:55:25.890Z,26.70
2023-05-07T05:56:25.854Z,26.50
2023-05-07T05:57:26.699Z,27.10
2023-05-07T05:58:25.833Z,25.30
2023-05-07T05:59:25.925Z,24.80
2023-05-07T06:00:25.812Z,25.30
2023-05-07T06:01:25.799Z,24.40
2023-05-07T06:02:25.930Z,24.40
2023-05-07T06:03:25.857Z,24.60
2023-05-07T06:04:25.766Z,23.20
2023-05-07T06:05:25.799Z,22.30
2023-05-07T06:06:25.723Z,22.20
2023-05-07T06:07:25.691Z,23.50
2023-05-07T06:08:25.717Z,22.60
2023-05-07T06:09:25.682Z,21.70
2023-05-07T06:10:25.688Z,22.60
2023-05-07T06:11:25.676Z,20.80
2023-05-07T06:12:25.652Z,22.20
2023-05-07T06:13:26.806Z,21.10
2023-05-07T06:14:25.623Z,20.60
2023-05-07T06:15:25.608Z,20.00
2023-05-07T06:16:25.612Z,20.50
2023-05-07T06:17:25.601Z,19.80
2023-05-07T06:18:25.570Z,19.80
2023-05-07T06:19:25.550Z,18.30
2023-05-07T06:20:25.601Z,18.30
2023-05-07T06:21:25.562Z,18.90
2023-05-07T06:22:25.603Z,18.30
2023-05-07T06:23:25.526Z,18.40
2023-05-07T06:24:25.466Z,18.30
2023-05-07T06:25:25.467Z,18.30
2023-05-07T06:26:25.469Z,17.70
2023-05-07T06:27:25.465Z,17.90
2023-05-07T06:28:25.441Z,17.10
2023-05-07T06:29:25.407Z,16.80
2023-05-07T06:30:25.402Z,17.00
2023-05-07T06:31:25.421Z,15.90
2023-05-07T06:32:25.439Z,16.20
2023-05-07T06:33:25.369Z,14.90
2023-05-07T06:34:25.414Z,14.80
2023-05-07T06:35:25.313Z,15.20
2023-05-07T06:36:25.310Z,15.30
2023-05-07T06:37:25.286Z,15.30
2023-05-07T06:38:25.384Z,14.60
2023-05-07T06:39:25.262Z,14.70
2023-05-07T06:40:25.258Z,14.40
2023-05-07T06:41:25.299Z,14.40
2023-05-07T06:42:25.265Z,13.90
2023-05-07T06:43:25.226Z,13.70
2023-05-07T06:44:25.209Z,14.50
2023-05-07T06:45:25.191Z,15.30
2023-05-07T06:46:25.256Z,13.60
2023-05-07T06:47:25.184Z,13.90
2023-05-07T06:48:25.187Z,13.70
2023-05-07T06:49:25.125Z,12.80
2023-05-07T06:50:25.143Z,11.90
2023-05-07T06:51:25.121Z,12.30
2023-05-07T06:52:25.123Z,12.30
2023-05-07T06:53:25.070Z,12.00
2023-05-07T06:54:25.069Z,11.60
2023-05-07T06:55:25.048Z,11.30
2023-05-07T06:56:25.082Z,11.10
2023-05-07T06:57:25.011Z,9.70
2023-05-07T06:58:25.016Z,9.80
2023-05-07T06:59:25.008Z,9.80
2023-05-07T07:00:24.985Z,9.20
2023-05-07T07:01:24.977Z,10.00
2023-05-07T07:02:25.054Z,9.00
2023-05-07T07:03:24.929Z,9.40
2023-05-07T07:04:24.976Z,9.30
2023-05-07T07:05:24.957Z,8.70
2023-05-07T07:06:24.946Z,8.70
2023-05-07T07:07:24.906Z,8.40
2023-05-07T07:08:24.929Z,8.60
2023-05-07T07:09:26.296Z,7.70
2023-05-07T07:10:24.874Z,8.60
2023-05-07T07:11:24.885Z,8.30
2023-05-07T07:12:24.830Z,8.00
2023-05-07T07:13:24.902Z,8.00
2023-05-07T07:14:24.826Z,7.60
2023-05-07T07:15:24.777Z,7.90
2023-05-07T07:16:24.766Z,8.00
2023-05-07T07:17:24.770Z,7.70
2023-05-07T07:18:24.756Z,7.60
2023-05-07T07:19:24.722Z,7.10
2023-05-07T07:20:24.898Z,6.90
2023-05-07T07:21:24.703Z,6.60
2023-05-07T07:22:24.667Z,6.00
2023-05-07T07:23:24.695Z,6.30
2023-05-07T07:24:24.660Z,5.80
2023-05-07T07:25:24.638Z,6.00
2023-05-07T07:26:24.646Z,6.30
2023-05-07T07:27:24.646Z,6.00
2023-05-07T07:28:24.633Z,6.50
2023-05-07T07:29:24.566Z,5.90
2023-05-07T07:30:24.741Z,5.80
2023-05-07T07:31:24.597Z,5.50
2023-05-07T07:32:24.593Z,5.50
2023-05-07T07:33:24.544Z,4.90
2023-05-07T07:34:24.504Z,5.80
2023-05-07T07:35:25.722Z,5.30
2023-05-07T07:36:29.494Z,5.60
2023-05-07T07:37:25.535Z,5.60
2023-05-07T07:38:24.515Z,5.40
2023-05-07T07:39:24.458Z,5.50
2023-05-07T07:40:24.631Z,5.40
2023-05-07T07:41:24.420Z,5.30
2023-05-07T07:42:24.403Z,5.70
2023-05-07T07:43:24.464Z,5.30
2023-05-07T07:44:24.396Z,5.50
2023-05-07T07:45:24.374Z,5.30
2023-05-07T07:46:24.391Z,5.30
2023-05-07T07:47:24.375Z,5.10
2023-05-07T07:48:24.343Z,5.00
2023-05-07T07:49:24.361Z,5.10
2023-05-07T07:50:35.950Z,5.10
2023-05-07T07:51:25.274Z,4.90
2023-05-07T07:52:24.292Z,4.90
2023-05-07T07:53:24.266Z,4.70
2023-05-07T07:54:24.284Z,4.70
2023-05-07T07:55:24.276Z,4.20
2023-05-07T07:56:24.215Z,4.30
2023-05-07T07:57:24.228Z,4.50
2023-05-07T07:58:24.232Z,4.00
2023-05-07T07:59:24.225Z,4.20
2023-05-07T08:00:24.183Z,4.30
2023-05-07T08:01:24.162Z,4.30
2023-05-07T08:02:24.299Z,4.30
2023-05-07T08:03:24.206Z,3.70
2023-05-07T08:04:24.195Z,3.90
2023-05-07T08:05:24.134Z,4.00
2023-05-07T08:06:24.102Z,4.20
2023-05-07T08:07:24.131Z,4.70
2023-05-07T08:08:24.060Z,5.00
2023-05-07T08:09:24.075Z,4.40
2023-05-07T08:10:24.065Z,4.10
2023-05-07T08:11:24.091Z,3.90
2023-05-07T08:12:24.105Z,3.60
2023-05-07T08:13:24.104Z,3.70
2023-05-07T08:14:24.073Z,4.00
2023-05-07T08:15:24.057Z,3.60
2023-05-07T08:16:24.359Z,4.30
2023-05-07T08:17:24.004Z,4.20
2023-05-07T08:18:23.941Z,3.80
2023-05-07T08:19:23.955Z,3.90
2023-05-07T08:20:23.911Z,3.90
2023-05-07T08:21:23.894Z,4.20
2023-05-07T08:22:23.878Z,3.70
2023-05-07T08:23:23.868Z,4.00
2023-05-07T08:24:23.864Z,3.80
2023-05-07T08:25:23.882Z,3.80
2023-05-07T08:26:23.885Z,3.30
2023-05-07T08:27:23.813Z,3.60
2023-05-07T08:28:23.827Z,3.70
2023-05-07T08:29:23.809Z,3.50
2023-05-07T08:30:23.788Z,4.10
2023-05-07T08:31:23.837Z,3.90
2023-05-07T08:32:23.774Z,3.60
2023-05-07T08:33:23.763Z,3.80
2023-05-07T08:34:23.772Z,3.90
2023-05-07T08:35:23.729Z,4.00
2023-05-07T08:36:23.713Z,3.60
2023-05-07T08:37:23.676Z,3.60
2023-05-07T08:38:23.676Z,3.80
2023-05-07T08:39:23.683Z,3.60
2023-05-07T08:40:23.611Z,4.00
2023-05-07T08:41:23.724Z,3.50
2023-05-07T08:42:23.685Z,3.50
2023-05-07T08:43:23.614Z,3.50
2023-05-07T08:44:23.584Z,3.60
2023-05-07T08:45:23.588Z,3.20
2023-05-07T08:46:23.558Z,3.10
2023-05-07T08:47:23.572Z,3.50
2023-05-07T08:48:23.548Z,3.50
2023-05-07T08:49:23.533Z,3.50
2023-05-07T08:50:23.586Z,3.40
2023-05-07T08:51:23.487Z,3.30
2023-05-07T08:52:23.456Z,3.40
2023-05-07T08:53:23.450Z,3.20
2023-05-07T08:54:23.427Z,3.40
2023-05-07T08:55:23.426Z,3.10
2023-05-07T08:56:23.445Z,3.40
2023-05-07T08:57:23.413Z,3.30
2023-05-07T08:58:23.384Z,3.30
2023-05-07T08:59:23.387Z,3.60
2023-05-07T09:00:23.388Z,3.10
2023-05-07T09:01:23.446Z,3.10
2023-05-07T09:02:23.504Z,3.30
2023-05-07T09:03:23.442Z,2.80
2023-05-07T09:04:23.307Z,2.80
2023-05-07T09:05:23.317Z,2.90
2023-05-07T09:06:23.272Z,2.90
2023-05-07T09:07:23.275Z,2.70
2023-05-07T09:08:23.274Z,3.10
2023-05-07T09:09:23.248Z,2.90
2023-05-07T09:10:23.287Z,3.00
2023-05-07T09:11:23.199Z,3.30
2023-05-07T09:12:23.175Z,3.10
2023-05-07T09:13:23.394Z,3.00
2023-05-07T09:14:23.165Z,3.20
2023-05-07T09:15:23.204Z,2.80
2023-05-07T09:16:23.247Z,2.60
2023-05-07T09:17:23.162Z,3.00
2023-05-07T09:18:23.125Z,2.80
2023-05-07T09:19:23.139Z,3.20
2023-05-07T09:20:23.088Z,3.50
2023-05-07T09:21:23.101Z,2.80
2023-05-07T09:22:23.108Z,2.80
2023-05-07T09:23:23.074Z,2.90
2023-05-07T09:24:23.031Z,2.90
2023-05-07T09:25:23.058Z,2.50
2023-05-07T09:26:23.013Z,2.90
2023-05-07T09:27:23.014Z,2.60
2023-05-07T09:28:23.181Z,2.50
2023-05-07T09:29:22.963Z,2.70
2023-05-07T09:30:23.065Z,2.40
2023-05-07T09:31:22.978Z,2.80
2023-05-07T09:32:22.965Z,2.90
2023-05-07T09:33:22.914Z,3.00
2023-05-07T09:34:22.907Z,2.30
2023-05-07T09:35:22.900Z,2.60
2023-05-07T09:36:22.864Z,2.20
2023-05-07T09:37:22.870Z,2.50
2023-05-07T09:38:22.845Z,2.70
2023-05-07T09:39:22.844Z,2.90
2023-05-07T09:40:22.818Z,2.90
2023-05-07T09:41:22.852Z,2.10
2023-05-07T09:42:22.786Z,2.40
2023-05-07T09:43:22.771Z,2.80
2023-05-07T09:44:22.799Z,2.80
2023-05-07T09:45:22.767Z,3.20
2023-05-07T09:46:22.782Z,3.00
2023-05-07T09:47:22.753Z,2.90
2023-05-07T09:48:22.696Z,2.70
2023-05-07T09:49:22.693Z,2.70
2023-05-07T09:50:22.692Z,2.50
2023-05-07T09:51:22.681Z,2.90
2023-05-07T09:52:22.624Z,2.50
2023-05-07T09:53:22.660Z,3.00
2023-05-07T09:54:22.622Z,3.10
2023-05-07T09:55:22.616Z,2.80
2023-05-07T09:56:22.571Z,3.30
2023-05-07T09:57:22.613Z,3.40
2023-05-07T09:58:22.610Z,3.20
2023-05-07T09:59:22.637Z,2.90
2023-05-07T10:00:22.636Z,3.00
2023-05-07T10:01:22.553Z,3.40
2023-05-07T10:02:22.563Z,3.10
2023-05-07T10:03:22.653Z,3.50
2023-05-07T10:04:22.505Z,3.10
2023-05-07T10:05:22.461Z,3.40
2023-05-07T10:06:22.439Z,3.30
2023-05-07T10:07:22.444Z,3.40
2023-05-07T10:08:22.463Z,3.60
2023-05-07T10:09:22.432Z,3.20
2023-05-07T10:10:22.401Z,3.40
2023-05-07T10:11:22.397Z,4.00
2023-05-07T10:12:22.366Z,3.40
2023-05-07T10:13:22.572Z,4.00
2023-05-07T10:14:22.346Z,4.10
2023-05-07T10:15:22.339Z,4.10
2023-05-07T10:16:22.365Z,3.70
2023-05-07T10:17:22.402Z,3.10
2023-05-07T10:18:22.366Z,3.00
2023-05-07T10:19:22.301Z,2.80
2023-05-07T10:20:22.273Z,2.90
2023-05-07T10:21:22.246Z,2.50
2023-05-07T10:22:22.301Z,3.10
2023-05-07T10:23:22.251Z,3.40
2023-05-07T10:24:22.256Z,3.80
2023-05-07T10:25:22.211Z,3.90
2023-05-07T10:26:22.219Z,3.10
2023-05-07T10:27:22.220Z,3.80
2023-05-07T10:28:22.182Z,3.90
2023-05-07T10:29:22.150Z,4.10
2023-05-07T10:30:22.144Z,3.70
2023-05-07T10:31:22.165Z,3.60
2023-05-07T10:32:22.132Z,3.70
2023-05-07T10:33:22.096Z,3.40
2023-05-07T10:34:22.069Z,3.30
2023-05-07T10:35:22.096Z,3.40
2023-05-07T10:36:22.049Z,3.80
2023-05-07T10:37:22.047Z,3.80
2023-05-07T10:38:22.054Z,4.00
2023-05-07T10:39:22.030Z,3.90
2023-05-07T10:40:22.031Z,4.10
2023-05-07T10:41:22.012Z,3.50
2023-05-07T10:42:21.973Z,3.40
2023-05-07T10:43:21.960Z,3.10
2023-05-07T10:44:21.985Z,3.70
2023-05-07T10:45:21.960Z,3.40
2023-05-07T10:46:22.069Z,2.40
2023-05-07T10:47:21.913Z,1.90
2023-05-07T10:48:30.178Z,2.40
2023-05-07T10:49:24.631Z,2.20
2023-05-07T10:50:21.914Z,2.20
2023-05-07T10:51:21.925Z,2.40
2023-05-07T10:52:21.850Z,2.60
2023-05-07T10:53:21.868Z,2.60
2023-05-07T10:54:21.831Z,2.10
2023-05-07T10:55:21.795Z,2.50
2023-05-07T10:56:21.802Z,2.10
2023-05-07T10:57:21.782Z,1.60
2023-05-07T10:58:31.543Z,1.80
2023-05-07T10:59:22.774Z,2.00
2023-05-07T11:00:28.068Z,2.10
2023-05-07T11:01:22.820Z,2.20
2023-05-07T11:02:21.709Z,2.20
2023-05-07T11:03:21.709Z,2.30
2023-05-07T11:04:21.678Z,1.70
2023-05-07T11:05:21.725Z,2.10
2023-05-07T11:06:21.654Z,2.10
2023-05-07T11:07:21.638Z,2.10
2023-05-07T11:08:21.677Z,1.70
2023-05-07T11:09:21.608Z,1.80
2023-05-07T11:10:21.590Z,2.10
2023-05-07T11:11:21.620Z,1.80
2023-05-07T11:12:21.559Z,1.90
2023-05-07T11:13:21.713Z,2.00
2023-05-07T11:14:21.533Z,2.30
2023-05-07T11:15:21.602Z,1.80
2023-05-07T11:16:21.584Z,2.30
2023-05-07T11:17:21.490Z,2.20
2023-05-07T11:18:21.492Z,2.20
2023-05-07T11:19:21.514Z,2.10
2023-05-07T11:20:21.475Z,1.80
2023-05-07T11:21:21.474Z,2.00
2023-05-07T11:22:21.429Z,1.50
2023-05-07T11:23:21.408Z,1.60
2023-05-07T11:24:21.510Z,2.10
2023-05-07T11:25:21.400Z,1.60
2023-05-07T11:26:21.453Z,2.10
2023-05-07T11:27:21.383Z,2.00
2023-05-07T11:28:21.336Z,1.90
2023-05-07T11:29:22.995Z,1.80
2023-05-07T11:30:21.345Z,2.00
2023-05-07T11:31:21.380Z,1.80
2023-05-07T11:32:21.307Z,2.80
2023-05-07T11:33:21.283Z,2.00
2023-05-07T11:34:21.272Z,2.20
2023-05-07T11:35:21.257Z,2.10
2023-05-07T11:36:21.252Z,2.30
2023-05-07T11:37:21.345Z,2.40
2023-05-07T11:38:21.259Z,2.60
2023-05-07T11:39:21.248Z,2.20
2023-05-07T11:40:21.223Z,2.40
2023-05-07T11:41:21.166Z,2.40
2023-05-07T11:42:21.144Z,2.10
2023-05-07T11:43:21.193Z,1.70
2023-05-07T11:44:21.131Z,1.70
2023-05-07T11:45:21.138Z,1.60
2023-05-07T11:46:21.185Z,2.00
2023-05-07T11:47:21.278Z,2.80
2023-05-07T11:48:21.101Z,2.30
2023-05-07T11:49:21.077Z,2.30
2023-05-07T11:50:21.057Z,2.40
2023-05-07T11:51:21.040Z,2.50
2023-05-07T11:52:21.050Z,2.40
2023-05-07T11:53:21.014Z,2.30
2023-05-07T11:54:21.035Z,2.00
2023-05-07T11:55:20.986Z,2.20
2023-05-07T11:56:20.989Z,2.00
2023-05-07T11:57:20.989Z,2.40
2023-05-07T11:58:21.021Z,2.20
2023-05-07T11:59:20.931Z,1.90
2023-05-07T12:00:20.940Z,2.00
2023-05-07T12:01:20.930Z,2.10
2023-05-07T12:02:21.022Z,2.40
2023-05-07T12:03:21.014Z,2.10
2023-05-07T12:04:21.084Z,2.00
2023-05-07T12:05:20.878Z,2.60
2023-05-07T12:06:20.880Z,2.50
2023-05-07T12:07:20.873Z,2.40
2023-05-07T12:08:20.829Z,2.20
2023-05-07T12:09:20.803Z,2.20
2023-05-07T12:10:20.797Z,2.20
2023-05-07T12:11:20.783Z,2.50
2023-05-07T12:12:20.835Z,1.80
2023-05-07T12:13:20.879Z,1.90
2023-05-07T12:14:20.782Z,1.60
2023-05-07T12:15:20.777Z,1.90
2023-05-07T12:16:20.807Z,1.70
2023-05-07T12:17:20.690Z,1.80
2023-05-07T12:18:20.702Z,1.90
2023-05-07T12:19:20.771Z,1.70
2023-05-07T12:20:20.653Z,2.00
2023-05-07T12:21:20.684Z,1.60
2023-05-07T12:22:20.637Z,2.00
2023-05-07T12:23:20.603Z,2.10
2023-05-07T12:24:21.802Z,1.70
2023-05-07T12:25:20.573Z,2.00
2023-05-07T12:26:20.560Z,1.90
2023-05-07T12:27:20.594Z,1.90
2023-05-07T12:28:20.544Z,1.80
2023-05-07T12:29:20.550Z,1.60
2023-05-07T12:30:20.532Z,1.60
2023-05-07T12:31:20.541Z,1.70
2023-05-07T12:32:20.576Z,1.90
2023-05-07T12:33:20.513Z,1.70
2023-05-07T12:34:20.507Z,1.70
2023-05-07T12:35:20.498Z,1.80
2023-05-07T12:36:20.420Z,1.70
2023-05-07T12:37:20.417Z,1.40
2023-05-07T12:38:20.411Z,1.50
2023-05-07T12:39:20.415Z,1.50
2023-05-07T12:40:20.394Z,1.50
2023-05-07T12:41:20.372Z,1.50
2023-05-07T12:42:20.375Z,1.50
2023-05-07T12:43:20.380Z,1.60
2023-05-07T12:44:20.318Z,1.40
2023-05-07T12:45:20.342Z,1.70
2023-05-07T12:46:20.360Z,1.30
2023-05-07T12:47:20.392Z,1.40
2023-05-07T12:48:20.308Z,1.70
2023-05-07T12:49:20.259Z,1.60
2023-05-07T12:50:20.277Z,1.90
2023-05-07T12:51:20.241Z,2.00
2023-05-07T12:52:20.242Z,1.90
2023-05-07T12:53:20.211Z,2.00
2023-05-07T12:54:20.222Z,1.60
2023-05-07T12:55:20.193Z,1.90
2023-05-07T12:56:20.178Z,2.30
2023-05-07T12:57:20.156Z,2.70
2023-05-07T12:58:20.140Z,2.70
2023-05-07T12:59:20.123Z,2.50
2023-05-07T13:00:20.128Z,2.80
2023-05-07T13:01:20.237Z,2.70
2023-05-07T13:02:20.122Z,2.40
2023-05-07T13:03:20.309Z,2.30
2023-05-07T13:04:20.047Z,2.30
2023-05-07T13:05:20.091Z,2.20